createdAt,value
2018-10-06T00:01:41.818Z,80.88
2018-10-06T00:04:10.838Z,80.97
2018-10-06T00:06:39.761Z,80.41
2018-10-06T00:09:08.982Z,79.52
2018-10-06T00:11:37.941Z,79.98
2018-10-06T00:14:06.906Z,80.29
2018-10-06T00:16:35.845Z,79.90
2018-10-06T00:19:04.804Z,79.97
2018-10-06T00:21:33.786Z,80.46
2018-10-06T00:24:02.765Z,80.17
2018-10-06T00:26:31.760Z,80.10
2018-10-06T00:29:00.666Z,80.75
2018-10-06T00:31:29.614Z,81.29
2018-10-06T00:33:58.677Z,80.57
2018-10-06T00:36:27.649Z,80.28
2018-10-06T00:38:56.642Z,80.43
2018-10-06T00:41:25.754Z,81.38
2018-10-06T00:43:54.745Z,80.38
2018-10-06T00:46:23.749Z,80.99
2018-10-06T00:48:52.799Z,80.24
2018-10-06T00:51:21.759Z,80.66
2018-10-06T00:53:51.348Z,80.98
2018-10-06T00:56:20.856Z,80.46
2018-10-06T00:58:49.861Z,80.10
2018-10-06T01:01:18.853Z,80.68
2018-10-06T01:03:48.223Z,80.33
2018-10-06T01:06:17.210Z,81.36
2018-10-06T01:08:46.170Z,81.15
2018-10-06T01:11:15.186Z,80.68
2018-10-06T01:13:44.087Z,80.92
2018-10-06T01:16:13.082Z,80.75
2018-10-06T01:18:42.023Z,80.11
2018-10-06T01:21:10.997Z,81.67
2018-10-06T01:23:40.091Z,81.08
2018-10-06T01:26:09.161Z,81.09
2018-10-06T01:28:38.070Z,81.68
2018-10-06T01:31:07.275Z,81.31
2018-10-06T01:33:36.243Z,81.96
2018-10-06T01:36:05.165Z,81.21
2018-10-06T01:38:34.626Z,81.17
2018-10-06T01:41:03.555Z,81.36
2018-10-06T01:43:33.213Z,81.42
2018-10-06T01:46:02.225Z,80.71
2018-10-06T01:48:31.183Z,81.50
2018-10-06T01:51:00.344Z,81.38
2018-10-06T01:53:29.274Z,81.12
2018-10-06T01:55:58.269Z,82.49
2018-10-06T01:58:27.355Z,82.63
2018-10-06T02:00:56.411Z,82.24
2018-10-06T02:03:26.543Z,81.62
2018-10-06T02:05:55.482Z,81.13
2018-10-06T02:08:24.496Z,81.64
2018-10-06T02:10:53.456Z,82.37
2018-10-06T02:13:22.405Z,82.81
2018-10-06T02:15:51.394Z,82.00
2018-10-06T02:18:20.303Z,81.87
2018-10-06T02:20:49.246Z,81.75
2018-10-06T02:23:18.223Z,81.69
2018-10-06T02:25:47.269Z,80.95
2018-10-06T02:28:16.240Z,82.00
2018-10-06T02:30:45.165Z,82.00
2018-10-06T02:33:14.170Z,82.54
2018-10-06T02:35:43.111Z,82.46
2018-10-06T02:38:12.099Z,82.55
2018-10-06T02:40:41.676Z,82.02
2018-10-06T02:43:10.621Z,82.33
2018-10-06T02:45:39.580Z,82.64
2018-10-06T02:48:08.572Z,82.41
2018-10-06T02:50:37.523Z,82.43
2018-10-06T02:53:06.721Z,83.04
2018-10-06T02:55:35.661Z,82.43
2018-10-06T02:58:04.609Z,82.14
2018-10-06T03:00:33.553Z,81.87
2018-10-06T03:03:02.460Z,81.79
2018-10-06T03:05:31.462Z,81.41
2018-10-06T03:08:00.556Z,81.52
2018-10-06T03:10:29.577Z,82.33
2018-10-06T03:12:58.504Z,81.71
2018-10-06T03:15:28.219Z,82.66
2018-10-06T03:17:57.252Z,82.38
2018-10-06T03:20:26.692Z,82.37
2018-10-06T03:22:56.869Z,81.68
2018-10-06T03:25:25.778Z,81.56
2018-10-06T03:27:54.679Z,81.44
2018-10-06T03:30:23.646Z,80.93
2018-10-06T03:32:52.640Z,82.02
2018-10-06T03:35:21.638Z,82.23
2018-10-06T03:37:51.269Z,83.49
2018-10-06T03:40:20.221Z,82.93
2018-10-06T03:42:49.170Z,82.95
2018-10-06T03:45:18.223Z,82.73
2018-10-06T03:47:47.196Z,82.64
2018-10-06T03:50:16.134Z,82.88
2018-10-06T03:52:45.109Z,83.06
2018-10-06T03:55:14.044Z,82.46
2018-10-06T03:57:42.945Z,81.78
2018-10-06T04:00:11.876Z,82.48
2018-10-06T04:02:40.832Z,82.52
2018-10-06T04:05:09.814Z,82.35
2018-10-06T04:07:38.789Z,82.53
2018-10-06T04:10:07.723Z,82.23
2018-10-06T04:12:36.674Z,83.67
2018-10-06T04:15:06.031Z,82.88
2018-10-06T04:17:34.940Z,83.31
2018-10-06T04:20:03.866Z,82.17
2018-10-06T04:22:32.850Z,82.56
2018-10-06T04:25:01.812Z,83.32
2018-10-06T04:27:30.798Z,82.83
2018-10-06T04:29:59.780Z,82.58
2018-10-06T04:32:28.692Z,83.20
2018-10-06T04:34:57.661Z,82.93
2018-10-06T04:37:26.642Z,82.73
2018-10-06T04:39:55.564Z,82.80
2018-10-06T04:42:24.531Z,82.70
2018-10-06T04:44:53.449Z,82.77
2018-10-06T04:47:22.593Z,82.58
2018-10-06T04:49:51.527Z,82.78
2018-10-06T04:52:20.441Z,82.91
2018-10-06T04:54:50.222Z,83.40
2018-10-06T04:57:20.049Z,83.07
2018-10-06T04:59:48.977Z,82.51
2018-10-06T05:02:17.987Z,82.87
2018-10-06T05:04:50.077Z,84.54
2018-10-06T05:07:19.014Z,83.22
2018-10-06T05:09:48.977Z,83.15
2018-10-06T05:12:17.886Z,82.49
2018-10-06T05:14:46.794Z,83.33
2018-10-06T05:17:16.785Z,83.36
2018-10-06T05:19:57.594Z,83.21
2018-10-06T05:22:26.579Z,83.14
2018-10-06T05:24:55.507Z,83.64
2018-10-06T05:27:25.023Z,83.48
2018-10-06T05:29:53.982Z,83.37
2018-10-06T05:32:22.929Z,83.35
2018-10-06T05:34:51.932Z,83.78
2018-10-06T05:37:21.155Z,83.87
2018-10-06T05:39:50.420Z,83.14
2018-10-06T05:42:19.377Z,83.06
2018-10-06T05:44:48.368Z,83.71
2018-10-06T05:47:19.110Z,84.10
2018-10-06T05:49:48.038Z,83.74
2018-10-06T05:52:17.891Z,83.27
2018-10-06T05:54:46.859Z,83.02
2018-10-06T05:57:15.796Z,83.83
2018-10-06T05:59:44.712Z,83.94
2018-10-06T06:02:14.187Z,84.23
2018-10-06T06:04:43.219Z,83.84
2018-10-06T06:07:12.127Z,84.66
2018-10-06T06:09:41.256Z,83.90
2018-10-06T06:12:10.186Z,84.07
2018-10-06T06:14:39.870Z,84.83
2018-10-06T06:17:08.900Z,84.52
2018-10-06T06:19:37.882Z,83.70
2018-10-06T06:22:06.924Z,83.94
2018-10-06T06:24:35.862Z,84.29
2018-10-06T06:27:04.843Z,84.29
2018-10-06T06:29:33.752Z,84.47
2018-10-06T06:32:02.707Z,84.31
2018-10-06T06:34:32.732Z,85.12
2018-10-06T06:37:01.691Z,85.47
2018-10-06T06:39:30.605Z,85.95
2018-10-06T06:42:00.682Z,85.68
2018-10-06T06:44:29.800Z,86.26
2018-10-06T06:46:58.597Z,85.76
2018-10-06T06:49:29.031Z,85.95
2018-10-06T06:51:58.307Z,87.27
2018-10-06T06:54:27.237Z,87.86
2018-10-06T06:56:56.404Z,85.98
2018-10-06T06:59:25.342Z,86.45
2018-10-06T07:01:54.271Z,87.18
2018-10-06T07:04:27.785Z,86.23
2018-10-06T07:07:05.903Z,87.77
2018-10-06T07:09:34.865Z,87.59
2018-10-06T07:12:03.778Z,85.60
2018-10-06T07:14:32.726Z,86.20
2018-10-06T07:17:01.946Z,87.29
2018-10-06T07:19:31.597Z,86.65
2018-10-06T07:22:02.685Z,87.80
2018-10-06T07:24:36.566Z,87.79
2018-10-06T07:32:32.859Z,87.01
2018-10-06T07:35:01.774Z,87.93
2018-10-06T07:37:30.718Z,88.96
2018-10-06T07:40:06.759Z,89.23
2018-10-06T07:43:25.514Z,89.91
2018-10-06T07:45:57.953Z,88.31
2018-10-06T07:48:27.273Z,87.70
2018-10-06T07:50:56.241Z,88.19
2018-10-06T07:53:30.196Z,88.20
2018-10-06T07:55:59.131Z,89.25
2018-10-06T07:58:28.090Z,90.81
2018-10-06T08:00:57.976Z,90.50
2018-10-06T08:03:27.113Z,90.75
2018-10-06T08:05:57.660Z,91.05
2018-10-06T08:08:30.320Z,90.84
2018-10-06T08:11:01.050Z,90.97
2018-10-06T08:13:30.173Z,90.91
2018-10-06T08:16:00.325Z,90.70
2018-10-06T08:18:44.643Z,89.54
2018-10-06T08:21:32.035Z,89.24
2018-10-06T08:24:01.124Z,89.93
2018-10-06T08:26:30.070Z,91.24
2018-10-06T08:29:00.405Z,89.13
2018-10-06T08:31:29.702Z,89.78
2018-10-06T08:33:58.662Z,90.94
2018-10-06T08:36:27.704Z,89.99
2018-10-06T08:38:59.946Z,89.74
2018-10-06T08:41:31.679Z,89.69
2018-10-06T08:44:00.633Z,88.17
2018-10-06T08:46:30.189Z,89.34
2018-10-06T08:48:59.241Z,88.76
2018-10-06T08:51:28.184Z,89.31
2018-10-06T08:53:57.115Z,88.29
2018-10-06T08:56:26.115Z,88.52
2018-10-06T08:58:55.038Z,87.19
2018-10-06T09:01:24.691Z,86.82
2018-10-06T09:03:54.009Z,87.39
2018-10-06T09:06:22.974Z,86.67
2018-10-06T09:08:51.905Z,86.65
2018-10-06T09:11:20.880Z,87.13
2018-10-06T09:13:49.897Z,85.79
2018-10-06T09:16:18.856Z,86.14
2018-10-06T09:18:47.790Z,85.08
2018-10-06T09:21:17.349Z,85.30
2018-10-06T09:23:46.342Z,84.44
2018-10-06T09:26:15.252Z,85.31
2018-10-06T09:28:44.325Z,85.16
2018-10-06T09:31:13.277Z,85.35
2018-10-06T09:33:42.250Z,85.16
2018-10-06T09:36:11.361Z,84.67
2018-10-06T09:38:40.301Z,84.19
2018-10-06T09:41:09.352Z,83.38
2018-10-06T09:43:38.372Z,83.87
2018-10-06T09:46:07.375Z,83.57
2018-10-06T09:48:36.332Z,84.38
2018-10-06T09:51:05.251Z,83.71
2018-10-06T09:53:34.316Z,83.84
2018-10-06T09:56:03.211Z,83.42
2018-10-06T09:58:32.139Z,83.77
2018-10-06T10:01:06.575Z,83.07
2018-10-06T10:03:40.926Z,83.19
2018-10-06T10:06:10.057Z,82.55
2018-10-06T10:08:39.021Z,83.05
2018-10-06T10:11:07.982Z,83.02
2018-10-06T10:13:37.849Z,82.55
2018-10-06T10:16:07.510Z,81.73
2018-10-06T10:18:36.467Z,82.27
2018-10-06T10:21:05.430Z,81.51
2018-10-06T10:23:34.367Z,81.65
2018-10-06T10:26:03.381Z,80.16
2018-10-06T10:28:32.427Z,79.88
2018-10-06T10:31:01.297Z,79.53
2018-10-06T10:33:30.263Z,80.22
2018-10-06T10:35:59.159Z,80.74
2018-10-06T10:38:28.081Z,79.50
2018-10-06T10:40:57.043Z,79.33
2018-10-06T10:43:25.987Z,78.99
2018-10-06T10:45:54.905Z,78.98
2018-10-06T10:48:24.703Z,79.49
2018-10-06T10:50:53.602Z,79.31
2018-10-06T10:53:22.559Z,79.75
2018-10-06T10:55:51.510Z,79.64
2018-10-06T10:58:20.433Z,79.61
2018-10-06T11:00:49.446Z,79.88
2018-10-06T11:03:18.434Z,78.52
2018-10-06T11:05:47.437Z,78.44
2018-10-06T11:08:16.949Z,78.16
2018-10-06T11:10:45.905Z,77.98
2018-10-06T11:13:14.837Z,77.71
2018-10-06T11:15:43.832Z,76.80
2018-10-06T11:18:12.777Z,78.35
2018-10-06T11:20:41.821Z,77.55
2018-10-06T11:23:10.751Z,77.59
2018-10-06T11:25:39.681Z,77.01
2018-10-06T11:28:08.661Z,76.80
2018-10-06T11:30:37.586Z,76.35
2018-10-06T11:33:06.994Z,76.08
2018-10-06T11:35:35.917Z,74.60
2018-10-06T11:38:05.481Z,75.07
2018-10-06T11:40:34.463Z,74.72
2018-10-06T11:43:03.449Z,75.49
2018-10-06T11:45:32.436Z,74.78
2018-10-06T11:48:01.356Z,76.00
2018-10-06T11:50:30.278Z,75.09
2018-10-06T11:52:59.418Z,73.30
2018-10-06T11:55:28.380Z,74.72
2018-10-06T11:57:57.310Z,74.71
2018-10-06T12:00:26.371Z,74.80
2018-10-06T12:02:55.251Z,74.20
2018-10-06T12:05:24.215Z,74.50
2018-10-06T12:07:53.435Z,74.62
2018-10-06T12:10:22.368Z,74.31
2018-10-06T12:12:51.289Z,74.61
2018-10-06T12:15:20.230Z,73.09
2018-10-06T12:17:49.164Z,72.69
2018-10-06T12:20:18.194Z,72.31
2018-10-06T12:22:47.077Z,72.97
2018-10-06T12:25:15.992Z,71.85
2018-10-06T12:27:44.950Z,73.09
2018-10-06T12:30:13.937Z,69.72
2018-10-06T12:32:42.900Z,70.77
2018-10-06T12:35:11.944Z,69.06
2018-10-06T12:37:40.838Z,70.03
2018-10-06T12:40:09.822Z,69.72
2018-10-06T12:42:38.737Z,69.04
2018-10-06T12:45:07.846Z,69.34
2018-10-06T12:47:37.035Z,68.84
2018-10-06T12:50:05.974Z,68.26
2018-10-06T12:52:34.934Z,69.14
2018-10-06T12:55:03.891Z,68.23
2018-10-06T12:57:32.836Z,68.21
2018-10-06T13:00:01.815Z,67.44
2018-10-06T13:02:30.712Z,67.53
2018-10-06T13:04:59.678Z,69.66
2018-10-06T13:07:28.613Z,69.22
2018-10-06T13:09:57.544Z,69.35
2018-10-06T13:12:26.563Z,68.99
2018-10-06T13:14:55.529Z,69.32
2018-10-06T13:17:24.421Z,68.42
2018-10-06T13:19:53.382Z,67.43
2018-10-06T13:22:22.384Z,68.07
2018-10-06T13:24:51.364Z,66.14
2018-10-06T13:27:20.343Z,67.90
2018-10-06T13:29:58.753Z,67.23
2018-10-06T13:32:28.071Z,67.72
2018-10-06T13:34:57.784Z,67.08
2018-10-06T13:37:26.696Z,66.79
2018-10-06T13:39:55.993Z,65.08
2018-10-06T13:42:25.119Z,66.92
2018-10-06T13:44:54.074Z,66.01
2018-10-06T13:47:22.999Z,66.26
2018-10-06T13:49:51.943Z,66.75
2018-10-06T13:52:20.937Z,66.21
2018-10-06T13:54:50.983Z,65.02
2018-10-06T13:57:19.962Z,64.97
2018-10-06T13:59:48.897Z,66.08
2018-10-06T14:02:17.864Z,65.85
2018-10-06T14:04:46.823Z,66.04
2018-10-06T14:07:15.751Z,65.37
2018-10-06T14:09:44.705Z,64.81
2018-10-06T14:12:49.163Z,66.15
2018-10-06T14:15:18.193Z,67.45
2018-10-06T14:17:47.149Z,66.63
2018-10-06T14:20:16.118Z,65.69
2018-10-06T14:22:45.074Z,66.65
2018-10-06T14:25:14.901Z,65.35
2018-10-06T14:27:43.836Z,65.29
2018-10-06T14:30:18.279Z,65.46
2018-10-06T14:32:47.230Z,66.60
2018-10-06T14:35:16.265Z,65.65
2018-10-06T14:37:45.206Z,66.22
2018-10-06T14:40:14.161Z,66.46
2018-10-06T14:43:26.562Z,66.69
2018-10-06T14:45:55.511Z,66.45
2018-10-06T14:48:24.420Z,66.20
2018-10-06T14:50:54.274Z,66.72
2018-10-06T14:53:23.245Z,66.28
2018-10-06T14:55:52.214Z,66.50
2018-10-06T14:58:21.155Z,66.50
2018-10-06T15:00:50.076Z,67.10
2018-10-06T15:03:19.278Z,66.99
2018-10-06T15:05:48.312Z,66.06
2018-10-06T15:08:17.288Z,66.75
2018-10-06T15:10:46.200Z,66.00
2018-10-06T15:13:15.131Z,67.19
2018-10-06T15:15:44.181Z,65.11
2018-10-06T15:18:13.050Z,66.98
2018-10-06T15:20:41.968Z,67.99
2018-10-06T15:23:10.935Z,67.18
2018-10-06T15:25:39.873Z,66.88
2018-10-06T15:28:08.810Z,68.91
2018-10-06T15:30:37.724Z,68.05
2018-10-06T15:33:06.782Z,68.86
2018-10-06T15:35:35.688Z,68.37
2018-10-06T15:38:04.658Z,68.01
2018-10-06T15:40:40.233Z,68.97
2018-10-06T15:43:09.169Z,68.02
2018-10-06T15:45:38.066Z,68.49
2018-10-06T15:48:07.010Z,69.19
2018-10-06T15:50:35.967Z,69.44
2018-10-06T15:53:04.939Z,69.71
2018-10-06T15:55:33.897Z,70.34
2018-10-06T15:58:03.010Z,69.46
2018-10-06T16:00:31.907Z,70.96
2018-10-06T16:03:00.904Z,71.06
2018-10-06T16:05:29.946Z,70.60
2018-10-06T16:07:58.918Z,69.82
2018-10-06T16:10:27.844Z,70.37
2018-10-06T16:12:56.775Z,70.61
2018-10-06T16:15:25.754Z,70.54
2018-10-06T16:17:54.726Z,71.54
2018-10-06T16:20:23.667Z,72.09
2018-10-06T16:22:52.623Z,72.40
2018-10-06T16:25:21.586Z,71.94
2018-10-06T16:27:50.508Z,72.86
2018-10-06T16:30:19.453Z,72.64
2018-10-06T16:32:48.442Z,72.81
2018-10-06T16:35:17.419Z,73.03
2018-10-06T16:37:46.360Z,73.08
2018-10-06T16:40:15.291Z,73.68
2018-10-06T16:42:44.217Z,73.56
2018-10-06T16:45:13.173Z,73.49
2018-10-06T16:47:42.089Z,73.85
2018-10-06T16:50:11.047Z,74.69
2018-10-06T16:52:40.146Z,74.29
2018-10-06T16:55:09.086Z,74.74
2018-10-06T16:57:38.074Z,74.35
2018-10-06T17:00:07.081Z,74.92
2018-10-06T17:02:36.025Z,74.46
2018-10-06T17:05:05.163Z,75.05
2018-10-06T17:07:34.134Z,74.41
2018-10-06T17:10:03.096Z,74.46
2018-10-06T17:12:32.055Z,75.17
2018-10-06T17:15:00.998Z,74.87
2018-10-06T17:17:30.005Z,74.29
2018-10-06T17:19:59.012Z,75.18
2018-10-06T17:22:27.927Z,74.59
2018-10-06T17:24:57.047Z,74.66
2018-10-06T17:27:25.965Z,75.11
2018-10-06T17:29:54.908Z,75.32
2018-10-06T17:32:23.875Z,75.25
2018-10-06T17:34:52.915Z,76.54
2018-10-06T17:37:22.663Z,75.83
2018-10-06T17:39:51.583Z,76.59
2018-10-06T17:42:20.569Z,75.22
2018-10-06T17:44:49.508Z,75.80
2018-10-06T17:47:18.447Z,76.83
2018-10-06T17:49:47.446Z,77.16
2018-10-06T17:52:16.351Z,76.96
2018-10-06T17:54:45.593Z,76.97
2018-10-06T17:57:14.506Z,77.63
2018-10-06T17:59:43.425Z,77.36
2018-10-06T18:02:12.409Z,77.74
2018-10-06T18:04:41.507Z,77.93
2018-10-06T18:07:10.468Z,77.30
2018-10-06T18:09:39.390Z,78.03
2018-10-06T18:12:08.435Z,78.60
2018-10-06T18:14:37.419Z,78.54
2018-10-06T18:17:06.317Z,78.27
2018-10-06T18:19:35.286Z,78.53
2018-10-06T18:22:04.231Z,78.69
2018-10-06T18:24:33.272Z,79.02
2018-10-06T18:27:02.301Z,78.70
2018-10-06T18:29:31.224Z,78.72
2018-10-06T18:32:00.277Z,79.10
2018-10-06T18:34:29.235Z,78.90
2018-10-06T18:36:58.374Z,79.61
2018-10-06T18:39:27.219Z,79.25
2018-10-06T18:41:56.144Z,79.68
2018-10-06T18:44:25.095Z,80.23
2018-10-06T18:46:54.115Z,79.66
2018-10-06T18:49:23.194Z,79.49
2018-10-06T18:51:52.058Z,79.81
2018-10-06T18:54:21.029Z,80.79
2018-10-06T18:56:49.977Z,80.40
2018-10-06T18:59:19.280Z,79.21
2018-10-06T19:01:48.671Z,79.74
2018-10-06T19:04:18.043Z,80.77
2018-10-06T19:06:47.331Z,80.67
2018-10-06T19:09:16.609Z,80.61
2018-10-06T19:11:45.861Z,80.28
2018-10-06T19:14:15.128Z,80.82
2018-10-06T19:16:44.490Z,80.39
2018-10-06T19:19:13.848Z,79.80
2018-10-06T19:21:43.141Z,81.64
2018-10-06T19:24:12.412Z,80.52
2018-10-06T19:26:41.726Z,81.21
2018-10-06T19:29:11.832Z,80.50
2018-10-06T19:31:41.065Z,80.99
2018-10-06T19:34:10.358Z,81.96
2018-10-06T19:36:39.568Z,80.95
2018-10-06T19:39:09.419Z,81.97
2018-10-06T19:41:39.211Z,82.03
2018-10-06T19:44:08.464Z,81.43
2018-10-06T19:46:37.907Z,81.67
2018-10-06T19:49:07.173Z,81.17
2018-10-06T19:51:36.507Z,81.81
2018-10-06T19:54:06.772Z,82.12
2018-10-06T19:56:36.062Z,82.57
2018-10-06T19:59:05.331Z,83.20
2018-10-06T20:01:34.581Z,83.13
2018-10-06T20:04:03.879Z,83.89
2018-10-06T20:06:33.129Z,83.20
2018-10-06T20:09:02.414Z,82.65
2018-10-06T20:11:31.664Z,82.26
2018-10-06T20:14:00.943Z,82.81
2018-10-06T20:16:30.185Z,82.25
2018-10-06T20:18:59.548Z,83.24
2018-10-06T20:21:28.834Z,82.35
2018-10-06T20:23:58.246Z,84.79
2018-10-06T20:26:27.208Z,83.15
2018-10-06T20:28:56.155Z,83.94
2018-10-06T20:31:25.133Z,83.35
2018-10-06T20:33:54.049Z,84.38
2018-10-06T20:36:23.023Z,83.77
2018-10-06T20:38:52.068Z,83.25
2018-10-06T20:41:21.005Z,82.91
2018-10-06T20:43:51.044Z,83.91
2018-10-06T20:46:20.007Z,83.17
2018-10-06T20:48:48.952Z,83.37
2018-10-06T20:51:17.894Z,84.67
2018-10-06T20:53:46.852Z,83.47
2018-10-06T20:56:15.950Z,83.56
2018-10-06T20:58:44.901Z,83.40
2018-10-06T21:01:13.827Z,83.49
2018-10-06T21:03:42.781Z,84.70
2018-10-06T21:06:11.786Z,84.40
2018-10-06T21:08:40.726Z,83.41
2018-10-06T21:11:09.750Z,84.62
2018-10-06T21:13:38.742Z,83.87
2018-10-06T21:16:07.661Z,84.30
2018-10-06T21:18:36.627Z,83.74
2018-10-06T21:21:05.575Z,83.87
2018-10-06T21:23:34.482Z,83.40
2018-10-06T21:26:03.478Z,83.78
2018-10-06T21:28:32.426Z,83.94
2018-10-06T21:31:01.371Z,83.25
2018-10-06T21:33:30.368Z,84.28
2018-10-06T21:35:59.318Z,83.65
2018-10-06T21:38:28.292Z,83.55
2018-10-06T21:40:57.379Z,83.77
2018-10-06T21:43:26.379Z,84.27
2018-10-06T21:45:55.791Z,83.59
2018-10-06T21:48:24.816Z,83.89
2018-10-06T21:50:53.831Z,83.40
2018-10-06T21:53:22.765Z,83.30
2018-10-06T21:55:51.736Z,82.90
2018-10-06T21:58:20.743Z,83.88
2018-10-06T22:00:53.891Z,82.86
2018-10-06T22:03:22.888Z,83.15
2018-10-06T22:05:51.879Z,84.03
2018-10-06T22:08:20.874Z,84.55
2018-10-06T22:10:49.855Z,84.38
2018-10-06T22:13:18.830Z,83.40
2018-10-06T22:15:47.783Z,83.86
2018-10-06T22:18:16.770Z,84.45
2018-10-06T22:20:45.734Z,83.61
2018-10-06T22:23:15.000Z,84.16
2018-10-06T22:25:44.604Z,83.60
2018-10-06T22:28:13.573Z,84.19
2018-10-06T22:30:42.609Z,83.29
2018-10-06T22:33:11.597Z,83.99
2018-10-06T22:35:40.663Z,84.64
2018-10-06T22:38:09.605Z,85.06
2018-10-06T22:40:38.573Z,84.26
2018-10-06T22:43:07.511Z,84.16
2018-10-06T22:45:36.464Z,85.05
2018-10-06T22:48:05.416Z,84.75
2018-10-06T22:50:34.402Z,85.12
2018-10-06T22:53:03.878Z,84.59
2018-10-06T22:55:32.865Z,84.52
2018-10-06T22:58:01.816Z,85.01
2018-10-06T23:00:30.787Z,84.93
2018-10-06T23:02:59.771Z,84.39
2018-10-06T23:05:28.755Z,85.07
2018-10-06T23:07:57.769Z,85.30
2018-10-06T23:10:26.784Z,85.45
2018-10-06T23:12:55.729Z,85.00
2018-10-06T23:15:24.676Z,85.77
2018-10-06T23:17:53.608Z,86.15
2018-10-06T23:20:22.640Z,85.87
2018-10-06T23:22:51.601Z,86.35
2018-10-06T23:25:20.525Z,86.40
2018-10-06T23:27:49.517Z,86.66
2018-10-06T23:30:18.510Z,86.93
2018-10-06T23:32:48.076Z,86.78
2018-10-06T23:35:17.050Z,86.21
2018-10-06T23:37:45.975Z,86.26
2018-10-06T23:40:14.934Z,86.35
2018-10-06T23:42:43.899Z,85.97
2018-10-06T23:45:12.822Z,87.01
2018-10-06T23:47:41.799Z,87.35
2018-10-06T23:50:10.753Z,86.82
2018-10-06T23:52:39.724Z,87.07
2018-10-06T23:55:08.669Z,86.98
2018-10-06T23:57:37.660Z,87.15
